Terminal Aerodrome Forecast
Issued by NWS

Home | Current Version | Previous Version | Text Only | Print | Product List | Glossary On
Versions: 1 2 3 4 5 6 7 8 9 10 11 12 13
000
FTUS43 KDTX 231120
TAFMBS
TAF
KMBS 231120Z 2312/2412 VRB04KT P6SM -SHRA OVC045
     FM231400 06005KT 6SM SHRA BKN022 OVC040
     FM231800 07008KT 4SM RA BR BKN008 OVC018
     FM240200 20012G24KT 5SM -RA BR OVC006
     FM240700 24018G30KT P6SM -SHRA BKN016 OVC040=

USA.gov is the U.S. government's official web portal to all federal, state and local government web resources and services.